createdAt,value
2023-04-22T00:02:16.414Z,11.18
2023-04-22T00:04:45.564Z,11.17
2023-04-22T00:07:13.966Z,11.21
2023-04-22T00:09:41.466Z,11.24
2023-04-22T00:12:08.415Z,11.25
2023-04-22T00:14:36.214Z,11.25
2023-04-22T00:17:02.983Z,11.24
2023-04-22T00:19:31.394Z,11.21
2023-04-22T00:21:58.143Z,11.19
2023-04-22T00:24:25.128Z,11.16
2023-04-22T00:26:51.855Z,11.18
2023-04-22T00:29:18.642Z,11.20
2023-04-22T00:31:45.542Z,11.21
2023-04-22T00:34:12.319Z,11.20
2023-04-22T00:36:39.077Z,11.16
2023-04-22T00:39:06.032Z,11.06
2023-04-22T00:41:33.492Z,10.97
2023-04-22T00:44:00.257Z,10.89
2023-04-22T00:46:27.193Z,10.79
2023-04-22T00:48:53.977Z,10.79
2023-04-22T00:51:20.608Z,10.83
2023-04-22T00:53:47.315Z,10.84
2023-04-22T00:56:14.098Z,10.83
2023-04-22T00:58:40.781Z,10.76
2023-04-22T01:01:07.529Z,10.65
2023-04-22T01:03:35.922Z,10.57
2023-04-22T01:06:03.107Z,10.56
2023-04-22T01:08:30.083Z,10.61
2023-04-22T01:10:57.264Z,10.68
2023-04-22T01:13:24.241Z,10.71
2023-04-22T01:15:51.512Z,10.72
2023-04-22T01:18:18.311Z,10.71
2023-04-22T01:20:45.160Z,10.69
2023-04-22T01:23:18.410Z,10.65
2023-04-22T01:25:45.957Z,10.59
2023-04-22T01:28:13.028Z,10.58
2023-04-22T01:30:40.393Z,10.59
2023-04-22T01:33:08.684Z,10.57
2023-04-22T01:35:38.796Z,10.55
2023-04-22T01:38:06.474Z,10.53
2023-04-22T01:40:33.691Z,10.50
2023-04-22T01:43:00.614Z,10.45
2023-04-22T01:45:27.537Z,10.39
2023-04-22T01:47:54.496Z,10.37
2023-04-22T01:50:21.309Z,10.39
2023-04-22T01:52:48.133Z,10.39
2023-04-22T01:55:14.952Z,10.35
2023-04-22T01:57:43.576Z,10.28
2023-04-22T02:00:10.843Z,10.24
2023-04-22T02:02:40.973Z,10.19
2023-04-22T02:05:08.156Z,10.14
2023-04-22T02:07:35.831Z,10.05
2023-04-22T02:10:05.726Z,10.01
2023-04-22T02:12:32.604Z,10.02
2023-04-22T02:14:59.452Z,10.01
2023-04-22T02:17:26.723Z,9.99
2023-04-22T02:19:53.608Z,9.95
2023-04-22T02:22:21.517Z,9.91
2023-04-22T02:24:50.725Z,9.83
2023-04-22T02:27:17.468Z,9.76
2023-04-22T02:29:45.567Z,9.69
2023-04-22T02:32:12.573Z,9.62
2023-04-22T02:34:39.733Z,9.54
2023-04-22T02:37:06.384Z,9.53
2023-04-22T02:39:34.205Z,9.54
2023-04-22T02:42:01.215Z,9.54
2023-04-22T02:44:28.075Z,9.54
2023-04-22T02:46:55.099Z,9.53
2023-04-22T02:49:21.826Z,9.53
2023-04-22T02:51:48.757Z,9.55
2023-04-22T02:54:15.552Z,9.54
2023-04-22T02:56:42.488Z,9.51
2023-04-22T02:59:09.093Z,9.47
2023-04-22T03:01:35.840Z,9.43
2023-04-22T03:04:03.677Z,9.45
2023-04-22T03:06:31.255Z,9.50
2023-04-22T03:08:58.395Z,9.54
2023-04-22T03:11:25.957Z,9.54
2023-04-22T03:13:52.843Z,9.50
2023-04-22T03:16:25.046Z,9.47
2023-04-22T03:18:52.065Z,9.45
2023-04-22T03:21:18.755Z,9.42
2023-04-22T03:23:45.692Z,9.40
2023-04-22T03:26:13.106Z,9.38
2023-04-22T03:28:40.048Z,9.36
2023-04-22T03:31:07.384Z,9.35
2023-04-22T03:33:34.782Z,9.36
2023-04-22T03:36:07.375Z,9.42
2023-04-22T03:38:34.479Z,9.48
2023-04-22T03:41:01.229Z,9.55
2023-04-22T03:43:47.173Z,9.63
2023-04-22T03:46:15.309Z,9.63
2023-04-22T03:48:47.672Z,9.62
2023-04-22T03:51:23.581Z,9.61
2023-04-22T03:53:51.962Z,9.61
2023-04-22T03:56:20.544Z,9.60
2023-04-22T03:58:47.527Z,9.58
2023-04-22T04:01:15.496Z,9.50
2023-04-22T04:03:44.687Z,9.48
2023-04-22T04:06:11.682Z,9.54
2023-04-22T04:08:38.663Z,9.67
2023-04-22T04:11:05.394Z,9.82
2023-04-22T04:13:32.705Z,9.97
2023-04-22T04:16:11.298Z,10.16
2023-04-22T04:18:39.537Z,10.32
2023-04-22T04:21:06.489Z,10.49
2023-04-22T04:23:35.293Z,10.62
2023-04-22T04:26:02.187Z,10.72
2023-04-22T04:28:31.947Z,10.81
2023-04-22T04:30:59.517Z,10.88
2023-04-22T04:33:26.995Z,10.94
2023-04-22T04:35:53.697Z,10.99
2023-04-22T04:38:24.472Z,11.03
2023-04-22T04:40:52.109Z,11.08
2023-04-22T04:43:25.194Z,11.18
2023-04-22T04:46:00.294Z,11.30
2023-04-22T04:48:35.387Z,11.42
2023-04-22T04:51:07.267Z,11.54
2023-04-22T04:53:37.673Z,11.64
2023-04-22T04:56:04.496Z,11.75
2023-04-22T04:58:31.164Z,11.83
2023-04-22T05:01:15.668Z,11.92
2023-04-22T05:03:43.194Z,11.98
2023-04-22T05:06:11.768Z,12.02
2023-04-22T05:08:39.158Z,12.05
2023-04-22T05:11:08.358Z,12.09
2023-04-22T05:13:35.091Z,12.14
2023-04-22T05:16:02.215Z,12.19
2023-04-22T05:18:29.308Z,12.23
2023-04-22T05:21:00.216Z,12.25
2023-04-22T05:23:27.130Z,12.27
2023-04-22T05:25:55.196Z,12.29
2023-04-22T05:28:23.728Z,12.33
2023-04-22T05:30:53.872Z,12.37
2023-04-22T05:33:20.824Z,12.40
2023-04-22T05:35:47.655Z,12.42
2023-04-22T05:38:14.715Z,12.44
2023-04-22T05:40:41.553Z,12.47
2023-04-22T05:43:09.683Z,12.50
2023-04-22T05:45:37.017Z,12.54
2023-04-22T05:48:04.125Z,12.57
2023-04-22T05:50:33.817Z,12.59
2023-04-22T05:53:05.724Z,12.62
2023-04-22T05:55:32.648Z,12.65
2023-04-22T05:57:59.396Z,12.66
2023-04-22T06:00:39.883Z,12.67
2023-04-22T06:03:13.767Z,12.68
2023-04-22T06:05:41.711Z,12.69
2023-04-22T06:08:08.567Z,12.73
2023-04-22T06:10:35.511Z,12.78
2023-04-22T06:13:02.597Z,12.86
2023-04-22T06:15:29.634Z,12.93
2023-04-22T06:17:56.556Z,12.99
2023-04-22T06:20:23.413Z,13.05
2023-04-22T06:22:50.362Z,13.11
2023-04-22T06:25:17.070Z,13.19
2023-04-22T06:27:43.735Z,13.28
2023-04-22T06:30:11.441Z,13.36
2023-04-22T06:32:40.307Z,13.45
2023-04-22T06:35:07.584Z,13.52
2023-04-22T06:37:34.732Z,13.61
2023-04-22T06:40:03.560Z,13.69
2023-04-22T06:42:53.586Z,13.79
2023-04-22T06:45:26.024Z,13.88
2023-04-22T06:48:01.646Z,13.97
2023-04-22T06:50:40.818Z,14.05
2023-04-22T06:53:09.314Z,14.13
2023-04-22T06:55:36.016Z,14.21
2023-04-22T06:58:03.019Z,14.31
2023-04-22T07:00:29.783Z,14.46
2023-04-22T07:02:57.686Z,14.60
2023-04-22T07:05:24.675Z,14.73
2023-04-22T07:07:51.591Z,14.86
2023-04-22T07:10:20.261Z,14.97
2023-04-22T07:13:06.998Z,15.07
2023-04-22T07:15:34.614Z,15.16
2023-04-22T07:18:01.597Z,15.22
2023-04-22T07:20:28.451Z,15.29
2023-04-22T07:22:55.146Z,15.35
2023-04-22T07:25:21.798Z,15.39
2023-04-22T07:27:48.554Z,15.43
2023-04-22T07:30:15.378Z,15.47
2023-04-22T07:32:42.082Z,15.53
2023-04-22T07:35:08.931Z,15.57
2023-04-22T07:37:35.603Z,15.65
2023-04-22T07:40:02.456Z,15.71
2023-04-22T07:42:29.458Z,15.78
2023-04-22T07:44:56.098Z,15.85
2023-04-22T07:47:22.823Z,15.91
2023-04-22T07:49:49.689Z,15.95
2023-04-22T07:52:16.441Z,15.97
2023-04-22T07:54:43.310Z,15.99
2023-04-22T07:57:10.110Z,16.01
2023-04-22T07:59:36.955Z,16.04
2023-04-22T08:02:03.919Z,16.08
2023-04-22T08:04:30.901Z,16.13
2023-04-22T08:06:57.637Z,16.20
2023-04-22T08:09:25.069Z,16.27
2023-04-22T08:11:51.935Z,16.33
2023-04-22T08:14:18.646Z,16.39
2023-04-22T08:16:45.312Z,16.45
2023-04-22T08:19:11.970Z,16.50
2023-04-22T08:21:39.108Z,16.56
2023-04-22T08:24:05.918Z,16.63
2023-04-22T08:26:32.780Z,16.72
2023-04-22T08:29:00.212Z,16.79
2023-04-22T08:31:26.843Z,16.81
2023-04-22T08:33:53.514Z,16.85
2023-04-22T08:36:22.329Z,16.89
2023-04-22T08:38:50.109Z,16.93
2023-04-22T08:41:18.229Z,16.99
2023-04-22T08:43:45.704Z,17.08
2023-04-22T08:46:14.829Z,17.18
2023-04-22T08:48:41.498Z,17.22
2023-04-22T08:51:08.226Z,17.24
2023-04-22T08:53:35.078Z,17.29
2023-04-22T08:56:01.749Z,17.37
2023-04-22T08:58:28.791Z,17.44
2023-04-22T09:00:55.586Z,17.48
2023-04-22T09:03:22.786Z,17.51
2023-04-22T09:05:49.446Z,17.53
2023-04-22T09:08:16.064Z,17.55
2023-04-22T09:10:42.791Z,17.52
2023-04-22T09:13:11.190Z,17.50
2023-04-22T09:15:37.826Z,17.44
2023-04-22T09:18:05.022Z,17.37
2023-04-22T09:20:33.302Z,17.32
2023-04-22T09:23:04.470Z,17.31
2023-04-22T09:25:32.650Z,17.34
2023-04-22T09:27:59.352Z,17.40
2023-04-22T09:30:33.966Z,17.49
2023-04-22T09:33:03.083Z,17.59
2023-04-22T09:35:31.445Z,17.67
2023-04-22T09:37:59.738Z,17.72
2023-04-22T09:40:27.097Z,17.77
2023-04-22T09:42:55.577Z,17.82
2023-04-22T09:45:38.726Z,17.89
2023-04-22T09:48:09.101Z,17.97
2023-04-22T09:50:37.136Z,18.02
2023-04-22T09:53:07.939Z,18.08
2023-04-22T09:55:41.156Z,18.13
2023-04-22T09:58:15.501Z,18.17
2023-04-22T10:00:53.612Z,18.23
2023-04-22T10:03:20.484Z,18.29
2023-04-22T10:05:47.356Z,18.32
2023-04-22T10:08:15.137Z,18.39
2023-04-22T10:10:42.178Z,18.45
2023-04-22T10:13:09.029Z,18.49
2023-04-22T10:15:48.229Z,18.56
2023-04-22T10:18:18.540Z,18.65
2023-04-22T10:20:45.256Z,18.73
2023-04-22T10:23:18.241Z,18.81
2023-04-22T10:25:48.752Z,18.91
2023-04-22T10:28:16.268Z,19.00
2023-04-22T10:30:43.027Z,19.07
2023-04-22T10:33:27.973Z,19.11
2023-04-22T10:36:17.208Z,19.15
2023-04-22T10:38:49.775Z,19.17
2023-04-22T10:41:16.520Z,19.21
2023-04-22T10:56:18.290Z,19.37
2023-04-22T10:58:46.478Z,19.84
2023-04-22T11:01:15.160Z,19.89
2023-04-22T11:03:43.375Z,19.87
2023-04-22T11:06:16.415Z,19.80
2023-04-22T11:08:48.602Z,19.69
2023-04-22T11:11:17.791Z,19.55
2023-04-22T11:13:47.665Z,19.43
2023-04-22T11:16:15.804Z,19.35
2023-04-22T11:18:46.690Z,19.30
2023-04-22T11:21:14.765Z,19.29
2023-04-22T11:23:50.890Z,19.35
2023-04-22T11:26:19.064Z,19.44
2023-04-22T11:28:47.632Z,19.58
2023-04-22T11:31:15.824Z,19.75
2023-04-22T11:33:44.158Z,19.86
2023-04-22T11:36:12.692Z,20.02
2023-04-22T11:38:40.843Z,20.19
2023-04-22T11:41:08.935Z,20.35
2023-04-22T11:43:46.823Z,20.47
2023-04-22T11:46:14.938Z,20.56
2023-04-22T11:48:43.089Z,20.56
2023-04-22T11:51:11.849Z,20.52
2023-04-22T11:53:50.538Z,20.47
2023-04-22T11:56:18.923Z,20.35
2023-04-22T11:58:47.441Z,20.20
2023-04-22T12:01:15.592Z,20.06
2023-04-22T12:03:43.772Z,19.96
2023-04-22T12:06:11.933Z,19.91
2023-04-22T12:08:42.611Z,19.85
2023-04-22T12:11:11.621Z,19.85
2023-04-22T12:13:42.583Z,19.89
2023-04-22T12:16:12.243Z,19.92
2023-04-22T12:18:41.925Z,19.94
2023-04-22T12:21:10.792Z,19.98
2023-04-22T12:23:43.736Z,20.10
2023-04-22T12:26:13.013Z,20.30
2023-04-22T12:28:41.911Z,20.48
2023-04-22T12:31:10.801Z,20.56
2023-04-22T12:33:39.178Z,20.60
2023-04-22T12:36:07.583Z,20.64
2023-04-22T12:38:35.713Z,20.66
2023-04-22T12:41:04.564Z,20.60
2023-04-22T12:43:36.375Z,20.53
2023-04-22T12:46:05.568Z,20.46
2023-04-22T12:48:34.099Z,20.38
2023-04-22T12:51:02.157Z,20.29
2023-04-22T12:53:30.280Z,20.22
2023-04-22T12:55:58.502Z,20.15
2023-04-22T12:58:26.738Z,20.10
2023-04-22T13:00:54.931Z,20.11
2023-04-22T13:03:23.446Z,20.18
2023-04-22T13:05:52.524Z,20.32
2023-04-22T13:08:21.339Z,20.45
2023-04-22T13:10:50.084Z,20.57
2023-04-22T13:13:19.482Z,20.65
2023-04-22T13:15:53.568Z,20.73
2023-04-22T13:18:23.404Z,20.87
2023-04-22T13:20:51.743Z,21.05
2023-04-22T13:23:21.862Z,21.23
2023-04-22T13:25:50.365Z,21.44
2023-04-22T13:28:18.767Z,21.64
2023-04-22T13:30:46.829Z,21.82
2023-04-22T13:33:15.798Z,22.00
2023-04-22T13:35:44.142Z,22.22
2023-04-22T13:38:12.551Z,22.91
2023-04-22T13:40:40.652Z,24.11
2023-04-22T13:43:09.377Z,25.54
2023-04-22T13:45:37.524Z,27.06
2023-04-22T13:48:05.691Z,28.38
2023-04-22T13:50:34.369Z,29.21
2023-04-22T13:53:04.074Z,29.74
2023-04-22T13:55:32.581Z,30.50
2023-04-22T13:58:01.353Z,31.33
2023-04-22T14:00:29.867Z,31.96
2023-04-22T14:02:58.499Z,32.35
2023-04-22T14:05:27.176Z,32.22
2023-04-22T14:07:55.971Z,32.11
2023-04-22T14:10:26.625Z,32.26
2023-04-22T14:12:56.276Z,32.76
2023-04-22T14:15:24.481Z,33.38
2023-04-22T14:17:53.553Z,33.67
2023-04-22T14:20:21.693Z,33.60
2023-04-22T14:22:49.753Z,33.76
2023-04-22T14:25:17.903Z,34.33
2023-04-22T14:27:46.285Z,34.68
2023-04-22T14:30:14.999Z,34.82
2023-04-22T14:32:44.297Z,35.21
2023-04-22T14:35:12.353Z,35.76
2023-04-22T14:37:41.831Z,36.32
2023-04-22T14:40:10.196Z,36.87
2023-04-22T14:42:38.436Z,37.38
2023-04-22T14:45:07.216Z,37.91
2023-04-22T14:47:35.487Z,38.23
2023-04-22T14:50:03.873Z,38.44
2023-04-22T14:52:33.097Z,38.66
2023-04-22T14:55:11.874Z,38.78
2023-04-22T14:57:48.955Z,38.60
2023-04-22T15:00:17.194Z,38.30
2023-04-22T15:02:45.450Z,37.83
2023-04-22T15:05:13.641Z,37.58
2023-04-22T15:07:41.754Z,37.64
2023-04-22T15:10:09.822Z,37.83
2023-04-22T15:12:37.945Z,37.96
2023-04-22T15:15:06.832Z,37.95
2023-04-22T15:17:35.015Z,37.97
2023-04-22T15:20:05.738Z,38.01
2023-04-22T15:22:35.031Z,37.73
2023-04-22T15:25:03.762Z,37.09
2023-04-22T15:27:32.010Z,36.67
2023-04-22T15:30:00.123Z,36.57
2023-04-22T15:32:28.220Z,36.72
2023-04-22T15:34:56.457Z,36.94
2023-04-22T15:37:24.636Z,37.13
2023-04-22T15:39:52.755Z,37.22
2023-04-22T15:42:20.760Z,37.28
2023-04-22T15:44:48.858Z,37.29
2023-04-22T15:47:17.886Z,37.10
2023-04-22T15:49:45.986Z,36.53
2023-04-22T15:52:14.169Z,36.11
2023-04-22T15:54:42.314Z,35.91
2023-04-22T15:57:10.878Z,35.57
2023-04-22T15:59:39.457Z,35.07
2023-04-22T16:02:08.816Z,34.60
2023-04-22T16:04:37.386Z,33.86
2023-04-22T16:07:06.144Z,32.97
2023-04-22T16:09:34.209Z,32.13
2023-04-22T16:12:02.268Z,31.36
2023-04-22T16:14:30.389Z,30.54
2023-04-22T16:16:58.488Z,29.81
2023-04-22T16:19:26.623Z,29.39
2023-04-22T16:21:55.754Z,29.25
2023-04-22T16:24:23.858Z,29.27
2023-04-22T16:26:52.084Z,29.33
2023-04-22T16:29:20.424Z,29.33
2023-04-22T16:31:48.463Z,29.23
2023-04-22T16:34:16.890Z,28.89
2023-04-22T16:36:45.028Z,28.34
2023-04-22T16:39:13.067Z,27.75
2023-04-22T16:41:43.288Z,27.25
2023-04-22T16:44:11.341Z,26.71
2023-04-22T16:46:39.767Z,26.22
2023-04-22T16:49:10.281Z,25.78
2023-04-22T16:51:39.981Z,25.38
2023-04-22T16:54:08.135Z,24.98
2023-04-22T16:56:37.617Z,24.64
2023-04-22T16:59:05.877Z,24.38
2023-04-22T17:01:34.253Z,24.13
2023-04-22T17:04:03.195Z,23.85
2023-04-22T17:06:32.604Z,23.58
2023-04-22T17:09:00.914Z,23.33
2023-04-22T17:11:32.470Z,23.14
2023-04-22T17:14:00.597Z,22.95
2023-04-22T17:16:28.821Z,22.78
2023-04-22T17:18:57.040Z,22.59
2023-04-22T17:21:25.395Z,22.39
2023-04-22T17:23:53.551Z,22.19
2023-04-22T17:26:21.588Z,22.05
2023-04-22T17:28:49.642Z,21.91
2023-04-22T17:31:17.935Z,21.73
2023-04-22T17:33:46.362Z,21.51
2023-04-22T17:36:14.783Z,21.32
2023-04-22T17:38:42.770Z,21.19
2023-04-22T17:41:10.769Z,21.07
2023-04-22T17:43:38.913Z,20.97
2023-04-22T17:46:06.892Z,20.88
2023-04-22T17:48:36.612Z,20.81
2023-04-22T17:51:06.783Z,20.76
2023-04-22T17:53:34.923Z,20.69
2023-04-22T17:56:03.074Z,20.60
2023-04-22T17:58:31.547Z,20.47
2023-04-22T18:00:59.845Z,20.32
2023-04-22T18:03:28.278Z,20.21
2023-04-22T18:05:56.605Z,20.12
2023-04-22T18:08:24.854Z,20.03
2023-04-22T18:10:53.338Z,19.91
2023-04-22T18:13:21.755Z,19.84
2023-04-22T18:15:49.780Z,19.76
2023-04-22T18:18:17.874Z,19.64
2023-04-22T18:20:46.135Z,19.49
2023-04-22T18:23:14.216Z,19.38
2023-04-22T18:25:42.376Z,19.24
2023-04-22T18:28:10.945Z,19.12
2023-04-22T18:30:39.053Z,19.03
2023-04-22T18:33:07.110Z,18.95
2023-04-22T18:35:36.491Z,18.90
2023-04-22T18:38:04.720Z,18.88
2023-04-22T18:40:33.768Z,18.84
2023-04-22T18:43:01.873Z,18.78
2023-04-22T18:45:30.074Z,18.71
2023-04-22T18:47:59.082Z,18.63
2023-04-22T18:50:27.230Z,18.52
2023-04-22T18:52:55.561Z,18.40
2023-04-22T18:55:23.752Z,18.30
2023-04-22T18:57:51.795Z,18.22
2023-04-22T19:00:20.042Z,18.18
2023-04-22T19:02:48.364Z,18.13
2023-04-22T19:05:18.142Z,18.07
2023-04-22T19:07:46.367Z,18.01
2023-04-22T19:10:14.488Z,17.95
2023-04-22T19:12:43.458Z,17.86
2023-04-22T19:15:12.371Z,17.80
2023-04-22T19:17:42.574Z,17.75
2023-04-22T19:20:11.045Z,17.67
2023-04-22T19:22:39.298Z,17.57
2023-04-22T19:25:08.284Z,17.50
2023-04-22T19:27:37.494Z,17.43
2023-04-22T19:30:06.807Z,17.36
2023-04-22T19:32:36.057Z,17.29
2023-04-22T19:35:04.634Z,17.26
2023-04-22T19:37:34.209Z,17.24
2023-04-22T19:40:02.308Z,17.20
2023-04-22T19:42:30.945Z,17.17
2023-04-22T19:44:59.572Z,17.13
2023-04-22T19:47:28.215Z,17.06
2023-04-22T19:49:56.694Z,16.99
2023-04-22T19:52:25.022Z,16.94
2023-04-22T19:54:56.229Z,16.92
2023-04-22T19:57:24.893Z,16.89
2023-04-22T19:59:54.249Z,16.86
2023-04-22T20:02:23.907Z,16.85
2023-04-22T20:04:52.288Z,16.82
2023-04-22T20:07:20.605Z,16.77
2023-04-22T20:09:48.699Z,16.70
2023-04-22T20:12:17.374Z,16.69
2023-04-22T20:14:45.983Z,16.67
2023-04-22T20:17:14.240Z,16.65
2023-04-22T20:19:42.547Z,16.62
2023-04-22T20:22:12.429Z,16.57
2023-04-22T20:24:41.683Z,16.52
2023-04-22T20:27:09.766Z,16.47
2023-04-22T20:29:40.862Z,16.42
2023-04-22T20:32:10.765Z,16.36
2023-04-22T20:34:39.368Z,16.30
2023-04-22T20:37:10.417Z,16.26
2023-04-22T20:39:38.451Z,16.23
2023-04-22T20:42:07.044Z,16.15
2023-04-22T20:44:35.311Z,16.10
2023-04-22T20:47:03.535Z,16.07
2023-04-22T20:49:31.976Z,16.06
2023-04-22T20:52:00.916Z,16.03
2023-04-22T20:54:29.560Z,16.01
2023-04-22T20:56:58.086Z,16.01
2023-04-22T20:59:26.178Z,16.01
2023-04-22T21:01:57.096Z,15.97
2023-04-22T21:04:26.171Z,15.94
2023-04-22T21:06:54.784Z,15.92
2023-04-22T21:09:25.002Z,15.90
2023-04-22T21:11:53.364Z,15.85
2023-04-22T21:14:22.392Z,15.80
2023-04-22T21:16:57.437Z,15.76
2023-04-22T21:19:26.152Z,15.73
2023-04-22T21:21:54.371Z,15.72
2023-04-22T21:24:22.550Z,15.73
2023-04-22T21:26:51.008Z,15.75
2023-04-22T21:29:19.521Z,15.73
2023-04-22T21:32:01.130Z,15.70
2023-04-22T21:34:35.632Z,15.65
2023-04-22T21:37:04.244Z,15.60
2023-04-22T21:39:32.798Z,15.56
2023-04-22T21:42:02.457Z,15.53
2023-04-22T21:44:30.782Z,15.50
2023-04-22T21:46:58.996Z,15.46
2023-04-22T21:49:27.103Z,15.41
2023-04-22T21:51:55.498Z,15.35
2023-04-22T21:54:23.775Z,15.32
2023-04-22T21:56:53.265Z,15.30
2023-04-22T21:59:21.558Z,15.27
2023-04-22T22:01:49.829Z,15.26
2023-04-22T22:04:18.039Z,15.24
2023-04-22T22:06:46.533Z,15.19
2023-04-22T22:09:14.573Z,15.14
2023-04-22T22:11:43.355Z,15.06
2023-04-22T22:14:11.556Z,15.01
2023-04-22T22:16:39.709Z,14.98
2023-04-22T22:19:11.125Z,14.98
2023-04-22T22:21:39.279Z,14.97
2023-04-22T22:24:09.528Z,14.95
2023-04-22T22:26:41.093Z,14.93
2023-04-22T22:29:15.274Z,14.91
2023-04-22T22:31:44.253Z,14.88
2023-04-22T22:34:12.376Z,14.86
2023-04-22T22:36:41.392Z,14.86
2023-04-22T22:39:12.015Z,14.86
2023-04-22T22:41:42.416Z,14.84
2023-04-22T22:44:12.423Z,14.80
2023-04-22T22:46:40.757Z,14.76
2023-04-22T22:49:09.310Z,14.69
2023-04-22T22:51:37.768Z,14.66
2023-04-22T22:54:05.894Z,14.60
2023-04-22T22:56:34.009Z,14.57
2023-04-22T22:59:02.172Z,14.56
2023-04-22T23:14:49.031Z,14.57
2023-04-22T23:17:16.627Z,14.91
2023-04-22T23:19:43.935Z,14.87
2023-04-22T23:22:11.134Z,14.83
2023-04-22T23:24:38.399Z,14.78
2023-04-22T23:27:06.260Z,14.72
2023-04-22T23:29:33.394Z,14.68
2023-04-22T23:32:00.664Z,14.65
2023-04-22T23:34:27.244Z,14.60
2023-04-22T23:36:53.909Z,14.54
2023-04-22T23:39:20.571Z,14.48
2023-04-22T23:41:47.253Z,14.43
2023-04-22T23:44:13.913Z,14.36
2023-04-22T23:46:40.814Z,14.32
2023-04-22T23:49:07.685Z,14.27
2023-04-22T23:51:34.545Z,14.23
2023-04-22T23:54:01.388Z,14.18
2023-04-22T23:56:28.543Z,14.15
2023-04-22T23:58:55.637Z,14.11
